createdAt,value
2019-03-01T00:00:54.507Z,59.17
2019-03-01T00:05:13.386Z,56.17
2019-03-01T00:09:50.107Z,52.77
2019-03-01T00:14:19.178Z,52.63
2019-03-01T00:18:57.004Z,53.93
2019-03-01T00:24:03.974Z,59.87
2019-03-01T00:28:39.421Z,58.10
2019-03-01T00:33:07.443Z,64.07
2019-03-01T00:37:34.643Z,54.73
2019-03-01T00:41:57.903Z,59.93
2019-03-01T00:46:02.187Z,59.07
2019-03-01T00:50:06.867Z,57.53
2019-03-01T00:54:11.191Z,54.17
2019-03-01T00:58:15.500Z,55.53
2019-03-01T01:02:19.897Z,56.03
2019-03-01T01:06:24.230Z,47.20
2019-03-01T01:10:28.524Z,56.83
2019-03-01T01:14:32.893Z,54.07
2019-03-01T01:18:37.325Z,49.47
2019-03-01T01:22:41.630Z,51.73
2019-03-01T01:26:46.016Z,51.07
2019-03-01T01:30:50.367Z,52.00
2019-03-01T01:34:54.744Z,47.37
2019-03-01T01:38:59.088Z,48.87
2019-03-01T01:43:03.452Z,47.70
2019-03-01T01:47:07.823Z,48.70
2019-03-01T01:51:12.090Z,47.83
2019-03-01T01:55:16.383Z,44.93
2019-03-01T01:59:20.709Z,47.57
2019-03-01T02:03:25.017Z,36.83
2019-03-01T02:07:29.404Z,43.20
2019-03-01T02:11:33.752Z,45.83
2019-03-01T02:15:38.075Z,42.23
2019-03-01T02:19:42.325Z,40.13
2019-03-01T02:23:46.679Z,41.73
2019-03-01T02:27:51.067Z,43.73
2019-03-01T02:31:59.597Z,44.47
2019-03-01T02:36:03.981Z,45.43
2019-03-01T02:40:09.220Z,43.90
2019-03-01T02:44:13.519Z,45.97
2019-03-01T02:48:17.843Z,42.90
2019-03-01T02:52:22.152Z,44.07
2019-03-01T02:56:26.449Z,44.43
2019-03-01T03:00:30.790Z,41.77
2019-03-01T03:04:35.187Z,45.50
2019-03-01T03:08:39.652Z,47.10
2019-03-01T03:12:43.982Z,45.30
2019-03-01T03:16:48.332Z,44.57
2019-03-01T03:20:52.673Z,49.13
2019-03-01T03:24:56.988Z,49.23
2019-03-01T03:29:01.389Z,51.90
2019-03-01T03:33:05.745Z,48.50
2019-03-01T03:37:10.071Z,46.67
2019-03-01T03:41:14.438Z,51.83
2019-03-01T03:45:18.720Z,48.43
2019-03-01T03:49:23.154Z,46.10
2019-03-01T03:53:27.453Z,47.70
2019-03-01T03:57:31.794Z,47.30
2019-03-01T04:01:36.245Z,45.77
2019-03-01T04:05:40.618Z,44.67
2019-03-01T04:09:44.992Z,50.60
2019-03-01T04:13:49.411Z,49.33
2019-03-01T04:17:53.680Z,47.77
2019-03-01T04:21:58.064Z,47.33
2019-03-01T04:26:02.408Z,49.73
2019-03-01T04:30:09.346Z,41.70
2019-03-01T04:34:13.728Z,45.40
2019-03-01T04:38:18.085Z,48.43
2019-03-01T04:42:22.475Z,52.50
2019-03-01T04:46:26.815Z,50.30
2019-03-01T04:50:31.164Z,52.20
2019-03-01T04:54:54.827Z,51.70
2019-03-01T04:58:59.221Z,45.67
2019-03-01T05:03:03.569Z,46.57
2019-03-01T05:07:08.043Z,53.53
2019-03-01T05:11:12.398Z,46.43
2019-03-01T05:15:18.737Z,46.73
2019-03-01T05:19:23.111Z,52.40
2019-03-01T05:23:27.376Z,46.60
2019-03-01T05:27:31.754Z,44.47
2019-03-01T05:31:36.067Z,44.33
2019-03-01T05:35:40.545Z,44.43
2019-03-01T05:39:44.885Z,49.27
2019-03-01T05:43:49.299Z,46.53
2019-03-01T05:47:53.703Z,45.80
2019-03-01T05:51:58.016Z,44.87
2019-03-01T05:56:02.399Z,43.33
2019-03-01T06:00:08.368Z,48.27
2019-03-01T06:04:45.654Z,48.57
2019-03-01T06:08:57.630Z,43.30
2019-03-01T06:13:48.463Z,46.57
2019-03-01T06:18:11.125Z,48.10
2019-03-01T06:23:07.915Z,44.30
2019-03-01T06:27:59.005Z,44.67
2019-03-01T06:32:42.242Z,50.60
2019-03-01T06:37:42.689Z,44.47
2019-03-01T06:42:12.131Z,46.33
2019-03-01T06:46:59.800Z,42.10
2019-03-01T06:51:28.849Z,45.43
2019-03-01T06:55:43.128Z,44.40
2019-03-01T06:59:47.523Z,47.53
2019-03-01T07:04:00.936Z,45.97
2019-03-01T07:08:05.471Z,48.47
2019-03-01T07:12:09.907Z,45.47
2019-03-01T07:16:14.332Z,52.00
2019-03-01T07:20:18.736Z,46.23
2019-03-01T07:24:23.319Z,47.63
2019-03-01T07:28:27.866Z,49.73
2019-03-01T07:32:32.424Z,41.93
2019-03-01T07:36:36.958Z,46.27
2019-03-01T07:40:41.400Z,44.00
2019-03-01T07:44:45.780Z,46.27
2019-03-01T07:48:50.239Z,40.50
2019-03-01T07:52:54.715Z,42.80
2019-03-01T07:56:59.139Z,51.33
2019-03-01T08:01:03.664Z,52.57
2019-03-01T08:05:09.835Z,49.03
2019-03-01T08:09:14.818Z,56.13
2019-03-01T08:13:19.290Z,51.10
2019-03-01T08:17:23.686Z,53.40
2019-03-01T08:21:28.179Z,52.37
2019-03-01T08:25:32.595Z,58.80
2019-03-01T08:29:37.068Z,53.73
2019-03-01T08:33:43.454Z,59.60
2019-03-01T08:37:53.561Z,58.60
2019-03-01T08:42:00.018Z,64.30
2019-03-01T08:46:05.508Z,63.00
2019-03-01T08:50:10.975Z,71.03
2019-03-01T08:54:15.358Z,74.57
2019-03-01T08:58:19.995Z,77.17
2019-03-01T09:02:43.573Z,84.83
2019-03-01T09:06:48.721Z,100.23
2019-03-01T09:10:53.222Z,119.90
2019-03-01T09:14:57.749Z,104.03
2019-03-01T09:19:02.127Z,116.83
2019-03-01T09:23:20.650Z,151.90
2019-03-01T09:27:12.511Z,145.40
2019-03-01T09:31:17.036Z,162.70
2019-03-01T09:35:39.768Z,171.67
2019-03-01T09:39:44.463Z,155.07
2019-03-01T09:43:48.896Z,150.53
2019-03-01T09:47:53.399Z,143.77
2019-03-01T09:51:57.858Z,136.83
2019-03-01T09:56:02.299Z,116.80
2019-03-01T10:00:08.596Z,134.23
2019-03-01T10:04:13.067Z,123.00
2019-03-01T10:08:17.556Z,113.17
2019-03-01T10:12:21.989Z,125.60
2019-03-01T10:16:26.379Z,106.60
2019-03-01T10:20:30.879Z,110.47
2019-03-01T10:24:35.289Z,117.37
2019-03-01T10:28:39.787Z,112.93
2019-03-01T10:32:44.287Z,110.27
2019-03-01T10:36:48.675Z,100.77
2019-03-01T10:40:53.302Z,104.90
2019-03-01T10:44:57.731Z,106.67
2019-03-01T10:49:02.212Z,96.73
2019-03-01T10:53:06.780Z,90.70
2019-03-01T10:57:11.420Z,88.63
2019-03-01T11:01:15.898Z,95.77
2019-03-01T11:05:20.492Z,92.77
2019-03-01T11:09:25.597Z,75.10
2019-03-01T11:13:30.025Z,50.00
2019-03-01T11:17:34.363Z,46.27
2019-03-01T11:21:38.838Z,50.97
2019-03-01T11:25:43.371Z,42.37
2019-03-01T11:29:47.843Z,41.50
2019-03-01T11:33:52.415Z,39.23
2019-03-01T11:37:56.983Z,41.73
2019-03-01T11:42:01.488Z,40.50
2019-03-01T11:46:06.026Z,41.30
2019-03-01T11:50:13.292Z,37.70
2019-03-01T11:54:17.853Z,37.27
2019-03-01T11:58:22.312Z,33.30
2019-03-01T12:02:26.800Z,37.80
2019-03-01T12:06:31.226Z,42.90
2019-03-01T12:10:35.690Z,36.90
2019-03-01T12:14:40.124Z,40.00
2019-03-01T12:18:44.618Z,36.10
2019-03-01T12:22:49.302Z,34.77
2019-03-01T12:26:53.748Z,44.60
2019-03-01T12:30:58.226Z,42.63
2019-03-01T12:35:02.716Z,42.37
2019-03-01T12:39:09.966Z,41.10
2019-03-01T12:43:14.598Z,49.53
2019-03-01T12:47:19.056Z,42.83
2019-03-01T12:51:23.499Z,42.03
2019-03-01T12:55:27.837Z,32.03
2019-03-01T12:59:32.317Z,40.87
2019-03-01T13:03:36.795Z,34.47
2019-03-01T13:07:41.253Z,30.63
2019-03-01T13:11:48.630Z,36.80
2019-03-01T13:15:52.339Z,35.70
2019-03-01T13:19:57.619Z,34.37
2019-03-01T13:24:03.058Z,29.57
2019-03-01T13:28:07.600Z,33.27
2019-03-01T13:32:12.000Z,26.03
2019-03-01T13:36:16.459Z,28.73
2019-03-01T13:40:23.996Z,24.37
2019-03-01T13:44:27.132Z,25.63
2019-03-01T13:48:31.745Z,22.90
2019-03-01T13:52:36.270Z,21.53
2019-03-01T13:56:40.837Z,23.67
2019-03-01T14:00:45.580Z,14.57
2019-03-01T14:04:51.584Z,17.27
2019-03-01T14:08:55.972Z,15.73
2019-03-01T14:13:00.447Z,11.83
2019-03-01T14:17:04.874Z,15.43
2019-03-01T14:21:09.341Z,17.67
2019-03-01T14:25:14.096Z,11.30
2019-03-01T14:29:18.557Z,13.00
2019-03-01T14:33:23.084Z,11.60
2019-03-01T14:37:27.534Z,19.80
2019-03-01T14:41:35.018Z,22.97
2019-03-01T14:45:37.975Z,13.93
2019-03-01T14:49:42.377Z,15.90
2019-03-01T14:53:46.846Z,17.50
2019-03-01T14:57:58.024Z,15.23
2019-03-01T15:02:33.370Z,12.63
2019-03-01T15:06:37.880Z,9.10
2019-03-01T15:10:42.342Z,16.27
2019-03-01T15:14:50.032Z,9.50
2019-03-01T15:18:53.071Z,9.80
2019-03-01T15:22:57.484Z,14.90
2019-03-01T15:27:04.046Z,11.47
2019-03-01T15:31:08.149Z,9.57
2019-03-01T15:35:12.534Z,11.80
2019-03-01T15:39:19.994Z,13.67
2019-03-01T15:43:26.589Z,11.73
2019-03-01T15:47:30.721Z,6.87
2019-03-01T15:51:38.147Z,8.87
2019-03-01T15:55:41.123Z,7.33
2019-03-01T15:59:47.800Z,11.00
2019-03-01T16:03:54.060Z,6.83
2019-03-01T16:07:57.798Z,7.13
2019-03-01T16:12:02.134Z,10.63
2019-03-01T16:16:06.616Z,8.80
2019-03-01T16:20:13.057Z,5.60
2019-03-01T16:24:36.724Z,7.20
2019-03-01T16:28:41.136Z,14.43
2019-03-01T16:32:49.745Z,6.13
2019-03-01T16:36:54.224Z,11.10
2019-03-01T16:41:01.905Z,15.17
2019-03-01T16:45:07.357Z,14.70
2019-03-01T16:49:11.751Z,14.13
2019-03-01T16:53:16.156Z,12.60
2019-03-01T16:57:20.640Z,11.20
2019-03-01T17:01:26.024Z,8.93
2019-03-01T17:05:31.285Z,13.17
2019-03-01T17:09:35.715Z,10.63
2019-03-01T17:13:40.175Z,9.83
2019-03-01T17:17:45.171Z,7.97
2019-03-01T17:21:50.969Z,8.33
2019-03-01T17:25:55.722Z,12.43
2019-03-01T17:30:00.048Z,15.30
2019-03-01T17:34:04.552Z,12.27
2019-03-01T17:38:08.961Z,10.37
2019-03-01T17:42:13.356Z,10.23
2019-03-01T17:46:17.735Z,10.13
2019-03-01T17:50:22.146Z,8.77
2019-03-01T17:54:26.492Z,12.83
2019-03-01T17:58:30.949Z,8.43
2019-03-01T18:02:35.337Z,11.73
2019-03-01T18:06:39.719Z,13.43
2019-03-01T18:10:44.007Z,19.33
2019-03-01T18:14:48.373Z,13.87
2019-03-01T18:18:53.029Z,13.97
2019-03-01T18:22:59.314Z,16.03
2019-03-01T18:27:03.412Z,15.30
2019-03-01T18:31:07.674Z,14.30
2019-03-01T18:35:12.238Z,13.47
2019-03-01T18:39:16.620Z,11.07
2019-03-01T18:43:20.910Z,9.80
2019-03-01T18:47:27.907Z,7.73
2019-03-01T18:51:50.235Z,11.60
2019-03-01T18:55:54.671Z,13.47
2019-03-01T18:59:59.974Z,12.60
2019-03-01T19:04:04.993Z,7.83
2019-03-01T19:08:09.354Z,11.07
2019-03-01T19:12:13.972Z,10.03
2019-03-01T19:16:18.338Z,9.47
2019-03-01T19:20:24.190Z,13.63
2019-03-01T19:24:28.455Z,10.87
2019-03-01T19:28:32.880Z,11.03
2019-03-01T19:32:37.419Z,8.63
2019-03-01T19:36:41.687Z,8.37
2019-03-01T19:40:47.111Z,11.87
2019-03-01T19:44:52.021Z,13.43
2019-03-01T19:48:57.692Z,8.83
2019-03-01T19:53:02.053Z,16.03
2019-03-01T19:57:06.324Z,9.43
2019-03-01T20:01:10.644Z,7.83
2019-03-01T20:05:16.707Z,12.47
2019-03-01T20:09:21.204Z,11.23
2019-03-01T20:13:25.576Z,8.73
2019-03-01T20:17:30.317Z,6.80
2019-03-01T20:21:36.170Z,10.67
2019-03-01T20:25:40.508Z,11.77
2019-03-01T20:29:44.839Z,10.00
2019-03-01T20:33:49.376Z,9.87
2019-03-01T20:37:53.732Z,8.87
2019-03-01T20:41:58.149Z,12.87
2019-03-01T20:46:03.879Z,14.17
2019-03-01T20:50:11.857Z,16.03
2019-03-01T20:54:14.655Z,7.20
2019-03-01T20:58:18.973Z,13.53
2019-03-01T21:02:23.366Z,9.87
2019-03-01T21:06:27.685Z,11.97
2019-03-01T21:10:31.953Z,13.17
2019-03-01T21:14:36.347Z,11.40
2019-03-01T21:18:40.627Z,9.93
2019-03-01T21:22:45.074Z,10.80
2019-03-01T21:26:51.232Z,10.43
2019-03-01T21:30:55.666Z,12.10
2019-03-01T21:35:01.386Z,10.90
2019-03-01T21:39:06.276Z,10.30
2019-03-01T21:43:10.584Z,8.23
2019-03-01T21:47:14.989Z,12.07
2019-03-01T21:51:19.951Z,8.40
2019-03-01T21:55:24.971Z,9.23
2019-03-01T21:59:30.617Z,8.87
2019-03-01T22:03:35.082Z,12.70
2019-03-01T22:07:39.498Z,11.53
2019-03-01T22:11:45.771Z,12.40
2019-03-01T22:15:49.886Z,13.07
2019-03-01T22:19:55.147Z,13.77
2019-03-01T22:23:59.736Z,10.10
2019-03-01T22:28:04.108Z,9.87
2019-03-01T22:32:10.556Z,13.90
2019-03-01T22:36:15.246Z,9.80
2019-03-01T22:40:24.065Z,8.67
2019-03-01T22:44:26.995Z,13.47
2019-03-01T22:48:31.361Z,12.57
2019-03-01T22:52:35.683Z,10.73
2019-03-01T22:56:40.080Z,13.43
2019-03-01T23:01:32.766Z,7.13
2019-03-01T23:05:39.229Z,9.57
2019-03-01T23:09:46.392Z,4.87
2019-03-01T23:13:48.731Z,13.70
2019-03-01T23:17:53.067Z,8.67
2019-03-01T23:21:57.419Z,14.50
2019-03-01T23:26:01.819Z,11.77
2019-03-01T23:30:06.408Z,13.03
2019-03-01T23:34:10.770Z,14.17
2019-03-01T23:38:15.762Z,8.80
2019-03-01T23:42:20.787Z,8.00
2019-03-01T23:46:28.550Z,15.37
2019-03-01T23:50:34.920Z,8.00
2019-03-01T23:54:40.703Z,8.47
2019-03-01T23:58:44.164Z,10.70
